Time;durP1;ratioP1;P1;durP2;ratioP2;P2;SDS_P1;SDS_P2;PMS_P1;PMS_P2;Temp;Humidity;BMP_temperature;BMP_pressure;BME280_temperature;BME280_humidity;BME280_pressure;Samples;Min_cycle;Max_cycle;Signal;HPM_P1;HPM_P2
2022/05/01 00:01:28;;;;;;;;;;;;;;;20.89;46.24;101730.09;5124518;27;2801;-65
2022/05/01 00:03:54;;;;;;;;;;;;;;;20.89;46.21;101724.31;5124382;27;2367;-66
2022/05/01 00:06:21;;;;;;;;;;;;;;;20.89;46.15;101729.31;5122740;27;2507;-66
2022/05/01 00:08:47;;;;;;;;;;;;;;;20.89;46.22;101735.84;5124663;27;2608;-66
2022/05/01 00:11:13;;;;;;;;;;;;;;;20.88;46.24;101731.44;5116536;27;2724;-66
2022/05/01 00:13:41;;;;;;;;;;;;;;;20.88;46.17;101730.72;5122063;27;2597;-66
2022/05/01 00:16:07;;;;;;;;;;;;;;;20.89;46.21;101735.06;5126844;27;2244;-66
2022/05/01 00:18:34;;;;;;;;;;;;;;;20.87;46.10;101732.09;5128066;27;2561;-65
2022/05/01 00:21:00;;;;;;;;;;;;;;;20.88;46.14;101731.44;5126733;27;2585;-66
2022/05/01 00:23:27;;;;;;;;;;;;;;;20.87;46.15;101721.31;5124102;27;2756;-66
2022/05/01 00:25:53;;;;;;;;;;;;;;;20.87;46.11;101729.97;5116614;27;2719;-67
2022/05/01 00:28:20;;;;;;;;;;;;;;;20.86;46.17;101737.09;5122092;27;2553;-66
2022/05/01 00:30:46;;;;;;;;;;;;;;;20.86;46.13;101734.22;5108587;27;2522;-66
2022/05/01 00:38:42;;;;;;;;;;;;;;;20.92;45.92;101725.94;5123246;27;2577;-66
2022/05/01 00:41:09;;;;;;;;;;;;;;;20.91;45.93;101727.31;5125680;27;2432;-65
2022/05/01 00:43:55;;;;;;;;;;;;;;;20.91;45.81;101718.69;5126033;27;2629;-66
2022/05/01 00:46:21;;;;;;;;;;;;;;;20.91;45.89;101718.69;5124608;27;2633;-66
2022/05/01 00:48:48;;;;;;;;;;;;;;;20.91;45.82;101715.81;5123030;27;2597;-66
2022/05/01 00:51:14;;;;;;;;;;;;;;;20.91;45.73;101724.44;5126221;27;2442;-65
2022/05/01 00:53:41;;;;;;;;;;;;;;;20.90;45.82;101714.28;5117273;27;2622;-66
2022/05/01 00:56:07;;;;;;;;;;;;;;;20.90;45.83;101722.94;5122495;27;2513;-64
2022/05/01 00:58:34;;;;;;;;;;;;;;;20.90;45.80;101725.81;5124015;27;2678;-65
2022/05/01 01:01:01;;;;;;;;;;;;;;;20.90;45.77;101722.19;5123941;27;2664;-65
2022/05/01 01:03:27;;;;;;;;;;;;;;;20.90;45.75;101725.81;5121008;27;2501;-65
2022/05/01 01:05:53;;;;;;;;;;;;;;;20.89;45.69;101712.81;5120670;27;2844;-65
2022/05/01 01:08:20;;;;;;;;;;;;;;;20.89;45.78;101729.31;5116721;27;2655;-65
2022/05/01 01:10:46;;;;;;;;;;;;;;;20.88;45.71;101725.69;5120865;27;2966;-65
2022/05/01 01:13:12;;;;;;;;;;;;;;;20.88;45.73;101727.84;5116933;27;2503;-65
2022/05/01 01:15:39;;;;;;;;;;;;;;;20.88;45.73;101722.06;5119590;27;2588;-65
2022/05/01 01:18:05;;;;;;;;;;;;;;;20.87;45.75;101721.31;5113095;27;2753;-64
2022/05/01 01:20:32;;;;;;;;;;;;;;;20.88;45.57;101722.06;5122080;27;2617;-65
2022/05/01 01:22:59;;;;;;;;;;;;;;;20.86;45.64;101719.81;5122663;27;2518;-64
2022/05/01 01:25:29;;;;;;;;;;;;;;;20.86;45.47;101719.81;5114355;27;2557;-65
2022/05/01 01:28:02;;;;;;;;;;;;;;;20.86;45.57;101716.94;5115454;27;2659;-64
2022/05/01 01:33:14;;;;;;;;;;;;;;;20.89;45.58;101729.31;5118157;27;2561;-66
2022/05/01 01:35:40;;;;;;;;;;;;;;;20.89;45.53;101723.56;5120813;27;2434;-66
2022/05/01 01:38:07;;;;;;;;;;;;;;;20.94;45.39;101731.06;5102836;27;2986;-65
2022/05/01 01:40:44;;;;;;;;;;;;;;;20.90;45.44;101731.56;5121432;27;2577;-65
2022/05/01 01:43:11;;;;;;;;;;;;;;;20.83;45.58;101729.72;5116093;27;2651;-65
2022/05/01 01:45:37;;;;;;;;;;;;;;;20.82;45.62;101727.47;5123123;28;2525;-65
2022/05/01 01:48:10;;;;;;;;;;;;;;;20.81;45.53;101732.47;5119509;27;2691;-65
2022/05/01 01:50:36;;;;;;;;;;;;;;;20.82;45.59;101738.97;5119622;28;2592;-65
2022/05/01 01:53:02;;;;;;;;;;;;;;;20.84;45.60;101736.97;5119563;27;2642;-65
2022/05/01 01:55:31;;;;;;;;;;;;;;;20.87;45.47;101738.59;5122926;28;2608;-64
2022/05/01 01:57:57;;;;;;;;;;;;;;;20.85;45.32;101738.47;5121631;28;2505;-65
2022/05/01 02:00:23;;;;;;;;;;;;;;;20.85;45.50;101734.88;5124818;28;2562;-64
2022/05/01 02:02:56;;;;;;;;;;;;;;;20.86;45.38;101737.09;5127765;27;2637;-65
2022/05/01 02:05:22;;;;;;;;;;;;;;;20.84;45.39;101734.09;5127204;27;2605;-64
2022/05/01 02:07:49;;;;;;;;;;;;;;;20.84;45.38;101734.09;5128862;27;2757;-65
2022/05/01 02:10:15;;;;;;;;;;;;;;;20.85;45.39;101743.50;5128223;27;2505;-65
2022/05/01 02:12:42;;;;;;;;;;;;;;;20.84;45.35;101739.84;5124481;27;2612;-65
2022/05/01 02:15:08;;;;;;;;;;;;;;;20.84;45.41;101731.22;5126993;27;2517;-65
2022/05/01 02:17:35;;;;;;;;;;;;;;;20.84;45.47;101734.09;5128985;27;2284;-64
2022/05/01 02:20:01;;;;;;;;;;;;;;;20.83;45.39;101729.72;5124595;27;2506;-65
2022/05/01 02:22:27;;;;;;;;;;;;;;;20.82;45.40;101731.13;5126621;27;2620;-65
2022/05/01 02:24:54;;;;;;;;;;;;;;;20.82;45.39;101725.34;5125550;27;2669;-65
2022/05/01 02:27:20;;;;;;;;;;;;;;;20.83;45.40;101723.97;5126235;27;2568;-64
2022/05/01 02:29:47;;;;;;;;;;;;;;;20.83;45.26;101731.84;5128513;27;2255;-64
2022/05/01 02:32:13;;;;;;;;;;;;;;;20.82;45.33;101731.13;5128042;27;2659;-64
2022/05/01 02:34:40;;;;;;;;;;;;;;;20.82;45.40;101730.34;5121163;27;2699;-65
2022/05/01 02:37:06;;;;;;;;;;;;;;;20.82;45.35;101731.13;5125700;27;2528;-64
2022/05/01 02:39:33;;;;;;;;;;;;;;;20.81;45.34;101723.84;5129964;27;1553;-64
2022/05/01 02:42:00;;;;;;;;;;;;;;;20.82;45.35;101728.25;5127407;27;2577;-65
2022/05/01 02:44:26;;;;;;;;;;;;;;;20.83;45.23;101723.22;5130977;27;1795;-65
2022/05/01 02:46:52;;;;;;;;;;;;;;;20.83;45.12;101723.97;5125083;27;2761;-65
2022/05/01 02:49:20;;;;;;;;;;;;;;;20.84;45.04;101721.84;5128934;27;2506;-65
2022/05/01 02:51:46;;;;;;;;;;;;;;;20.84;45.06;101721.84;5126370;27;2917;-65
2022/05/01 02:54:12;;;;;;;;;;;;;;;20.85;45.16;101726.97;5122808;27;2588;-64
2022/05/01 02:56:39;;;;;;;;;;;;;;;20.84;45.15;101725.44;5124061;27;2699;-65
2022/05/01 02:59:09;;;;;;;;;;;;;;;20.85;45.20;101729.84;5126639;27;2660;-65
2022/05/01 03:01:36;;;;;;;;;;;;;;;20.86;45.22;101727.72;5120708;27;2659;-64
2022/05/01 03:04:02;;;;;;;;;;;;;;;20.85;45.15;101729.09;5120809;27;2720;-65
2022/05/01 03:06:29;;;;;;;;;;;;;;;20.86;45.19;101734.22;5124936;27;2572;-65
2022/05/01 03:08:56;;;;;;;;;;;;;;;20.87;45.03;101729.22;5124896;27;2490;-65
2022/05/01 03:11:22;;;;;;;;;;;;;;;20.87;45.31;101727.09;5120452;27;2632;-65
2022/05/01 03:13:48;;;;;;;;;;;;;;;20.87;45.36;101721.31;5120966;27;2569;-65
2022/05/01 03:16:15;;;;;;;;;;;;;;;20.88;45.42;101725.69;5129049;27;2449;-65
2022/05/01 03:24:11;;;;;;;;;;;;;;;20.89;45.40;101724.31;5127188;27;2671;-65
2022/05/01 03:26:38;;;;;;;;;;;;;;;20.89;45.47;101720.69;5128754;27;2268;-64
2022/05/01 03:29:04;;;;;;;;;;;;;;;20.90;45.46;101722.94;5127320;27;2556;-65
2022/05/01 03:31:31;;;;;;;;;;;;;;;20.90;45.30;101725.81;5123191;27;2619;-65
2022/05/01 03:33:58;;;;;;;;;;;;;;;20.90;45.43;101720.06;5121461;27;2495;-65
2022/05/01 03:36:26;;;;;;;;;;;;;;;20.90;45.47;101725.81;5127203;27;2599;-65
2022/05/01 03:38:52;;;;;;;;;;;;;;;20.92;45.40;101725.19;5123585;27;2632;-65
2022/05/01 03:41:18;;;;;;;;;;;;;;;20.93;45.44;101718.03;5128424;27;1831;-64
2022/05/01 03:43:45;;;;;;;;;;;;;;;20.92;45.31;101723.06;5123818;27;2692;-65
2022/05/01 03:46:11;;;;;;;;;;;;;;;20.93;45.30;101723.81;5130142;27;1581;-65
2022/05/01 03:48:38;;;;;;;;;;;;;;;20.92;45.45;101728.81;5121911;27;2950;-64
2022/05/01 03:51:04;;;;;;;;;;;;;;;20.92;45.54;101725.94;5123535;27;2630;-65
2022/05/01 03:53:30;;;;;;;;;;;;;;;20.92;45.63;101725.94;5122259;27;2595;-64
2022/05/01 03:55:57;;;;;;;;;;;;;;;20.95;45.57;101731.81;5126481;27;2509;-65
2022/05/01 03:58:23;;;;;;;;;;;;;;;20.96;45.56;101733.28;5125599;27;2652;-65
2022/05/01 04:00:50;;;;;;;;;;;;;;;20.95;45.47;101738.31;5123879;27;2574;-64
2022/05/01 04:03:17;;;;;;;;;;;;;;;20.96;45.54;101741.94;5121785;27;2707;-64
2022/05/01 04:05:44;;;;;;;;;;;;;;;20.95;45.54;101726.81;5122934;27;2582;-65
2022/05/01 04:08:10;;;;;;;;;;;;;;;20.96;45.54;101728.31;5126000;27;2110;-65
2022/05/01 04:10:41;;;;;;;;;;;;;;;20.97;45.59;101731.94;5128144;27;2432;-65
2022/05/01 04:13:07;;;;;;;;;;;;;;;20.96;45.50;101731.19;5120863;27;2565;-65
2022/05/01 04:15:34;;;;;;;;;;;;;;;20.97;45.54;101731.94;5124389;27;2548;-66
2022/05/01 04:18:02;;;;;;;;;;;;;;;20.97;45.46;101729.81;5123662;27;2517;-65
2022/05/01 04:20:29;;;;;;;;;;;;;;;20.97;45.43;101729.81;5117828;27;3002;-65
2022/05/01 04:22:56;;;;;;;;;;;;;;;20.97;45.49;101726.19;5124702;27;2491;-64
2022/05/01 04:25:23;;;;;;;;;;;;;;;20.98;45.32;101730.53;5121023;27;2656;-65
2022/05/01 04:27:51;;;;;;;;;;;;;;;20.99;45.52;101732.06;5103551;27;2565;-65
2022/05/01 04:30:18;;;;;;;;;;;;;;;20.99;45.58;101735.69;5125778;27;2904;-65
2022/05/01 04:32:49;;;;;;;;;;;;;;;20.99;45.53;101732.06;5120304;27;2294;-64
2022/05/01 04:35:19;;;;;;;;;;;;;;;20.98;45.62;101730.53;5125076;27;2934;-64
2022/05/01 04:37:46;;;;;;;;;;;;;;;21.00;45.57;101736.41;5127238;27;2005;-65
2022/05/01 04:40:17;;;;;;;;;;;;;;;20.99;45.58;101732.78;5123442;27;2496;-65
2022/05/01 04:42:43;;;;;;;;;;;;;;;20.98;45.60;101731.31;5121496;27;2628;-65
2022/05/01 04:45:11;;;;;;;;;;;;;;;20.99;45.50;101737.81;5128772;27;1525;-65
2022/05/01 04:47:38;;;;;;;;;;;;;;;21.00;45.54;101739.28;5126356;27;2576;-65
2022/05/01 04:50:04;;;;;;;;;;;;;;;21.00;45.58;101742.19;5121505;27;2711;-64
2022/05/01 04:52:31;;;;;;;;;;;;;;;21.00;45.57;101739.28;5121218;27;2572;-65
2022/05/01 04:54:57;;;;;;;;;;;;;;;21.01;45.46;101740.81;5123660;27;2604;-64
2022/05/01 04:57:23;;;;;;;;;;;;;;;21.00;45.50;101748.69;5120840;27;2684;-65
2022/05/01 04:59:50;;;;;;;;;;;;;;;21.00;45.50;101745.06;5126266;27;2592;-65
2022/05/01 05:02:16;;;;;;;;;;;;;;;21.00;45.51;101745.06;5120875;27;2621;-65
2022/05/01 05:04:43;;;;;;;;;;;;;;;21.01;45.62;101740.81;5114629;27;2635;-65
2022/05/01 05:07:34;;;;;;;;;;;;;;;21.03;45.61;101749.56;5125923;27;2183;-65
2022/05/01 05:10:01;;;;;;;;;;;;;;;21.04;45.57;101751.06;5121886;27;2665;-65
2022/05/01 05:12:27;;;;;;;;;;;;;;;21.03;45.57;101755.34;5119696;27;2743;-65
2022/05/01 05:14:57;;;;;;;;;;;;;;;21.03;45.49;101758.22;5119472;27;2885;-65
2022/05/01 05:17:24;;;;;;;;;;;;;;;21.02;45.64;101753.81;5125368;27;2759;-65
2022/05/01 05:19:50;;;;;;;;;;;;;;;21.05;45.70;101752.53;5123914;27;2680;-65
2022/05/01 05:22:16;;;;;;;;;;;;;;;21.03;45.69;101756.06;5125111;27;2544;-65
2022/05/01 05:24:43;;;;;;;;;;;;;;;21.05;45.57;101752.53;5124547;27;2355;-65
2022/05/01 05:27:09;;;;;;;;;;;;;;;21.05;45.59;101749.66;5124236;27;2450;-65
2022/05/01 05:29:35;;;;;;;;;;;;;;;21.04;45.54;101760.44;5125783;27;2104;-65
2022/05/01 05:32:02;;;;;;;;;;;;;;;21.04;45.56;101756.81;5120512;27;2699;-65
2022/05/01 05:34:28;;;;;;;;;;;;;;;21.04;45.60;101757.56;5117009;27;2514;-65
2022/05/01 05:36:55;;;;;;;;;;;;;;;21.05;45.56;101764.84;5126994;27;1971;-65
2022/05/01 05:39:21;;;;;;;;;;;;;;;21.06;45.52;101756.94;5124283;27;2144;-65
2022/05/01 05:41:48;;;;;;;;;;;;;;;21.05;45.68;101764.84;5125325;27;2532;-65
2022/05/01 05:44:14;;;;;;;;;;;;;;;21.06;45.66;101765.56;5118275;27;2574;-66
2022/05/01 05:46:40;;;;;;;;;;;;;;;21.05;45.72;101764.84;5125696;27;2516;-65
2022/05/01 05:49:07;;;;;;;;;;;;;;;21.07;45.57;101764.94;5119672;27;2566;-65
2022/05/01 05:51:33;;;;;;;;;;;;;;;21.07;45.57;101767.06;5121732;28;2458;-65
2022/05/01 05:53:59;;;;;;;;;;;;;;;21.07;45.54;101755.53;5120186;28;2640;-65
2022/05/01 05:56:26;;;;;;;;;;;;;;;21.08;45.66;101768.56;5115807;28;2689;-65
2022/05/01 05:58:52;;;;;;;;;;;;;;;21.07;45.63;101764.19;5120885;28;2964;-64
2022/05/01 06:01:19;;;;;;;;;;;;;;;21.07;45.67;101764.19;5118445;28;2516;-65
2022/05/01 06:03:45;;;;;;;;;;;;;;;21.08;45.62;101768.56;5121655;28;2616;-65
2022/05/01 06:06:14;;;;;;;;;;;;;;;21.09;45.61;101772.94;5120694;28;2604;-64
2022/05/01 06:08:40;;;;;;;;;;;;;;;21.08;45.73;101774.34;5124937;28;2051;-64
2022/05/01 06:11:06;;;;;;;;;;;;;;;21.08;45.69;101780.09;5123927;28;2667;-64
2022/05/01 06:13:33;;;;;;;;;;;;;;;21.06;45.72;101771.34;5123578;28;2365;-64
2022/05/01 06:15:59;;;;;;;;;;;;;;;21.07;45.79;101767.06;5122931;28;2549;-64
2022/05/01 06:18:25;;;;;;;;;;;;;;;21.06;45.84;101774.97;5119240;28;2628;-65
2022/05/01 06:20:53;;;;;;;;;;;;;;;21.06;45.67;101777.84;5118313;28;2580;-66
2022/05/01 06:23:25;;;;;;;;;;;;;;;21.06;45.61;101774.22;5118094;28;2623;-66
2022/05/01 06:25:51;;;;;;;;;;;;;;;21.06;45.59;101777.09;5118436;28;2521;-66
2022/05/01 06:28:18;;;;;;;;;;;;;;;21.07;45.64;101778.59;5116068;28;2694;-65
2022/05/01 06:30:45;;;;;;;;;;;;;;;21.07;45.55;101790.09;5126610;28;1760;-65
2022/05/01 06:33:12;;;;;;;;;;;;;;;21.06;45.54;101794.38;5092668;28;2613;-65
2022/05/01 06:35:38;;;;;;;;;;;;;;;21.07;45.67;101790.09;5124256;28;2619;-65
2022/05/01 06:38:05;;;;;;;;;;;;;;;21.07;45.72;101790.09;5122505;28;2452;-65
2022/05/01 06:40:31;;;;;;;;;;;;;;;21.05;45.74;101802.28;5120257;28;2684;-65
2022/05/01 06:42:57;;;;;;;;;;;;;;;21.05;45.61;101807.25;5120791;28;2591;-64
2022/05/01 06:45:24;;;;;;;;;;;;;;;21.00;44.84;101803.38;5125308;28;2739;-58
2022/05/01 06:47:50;;;;;;;;;;;;;;;20.20;41.34;101800.72;5116517;27;2744;-58
2022/05/01 06:50:16;;;;;;;;;;;;;;;19.84;41.20;101805.69;5108209;27;2530;-59
2022/05/01 06:52:43;;;;;;;;;;;;;;;19.55;40.71;101812.44;5122106;27;2333;-59
2022/05/01 06:55:09;;;;;;;;;;;;;;;19.44;40.78;101807.41;5120115;27;2533;-58
2022/05/01 06:57:36;;;;;;;;;;;;;;;19.16;40.18;101804.19;5121390;27;2588;-59
2022/05/01 07:00:02;;;;;;;;;;;;;;;19.02;40.04;101795.38;5124377;27;2620;-59
2022/05/01 07:02:29;;;;;;;;;;;;;;;18.94;39.64;101799.81;5109613;27;2244;-60
2022/05/01 07:04:55;;;;;;;;;;;;;;;19.00;39.80;101800.97;5119540;27;2853;-60
2022/05/01 07:07:22;;;;;;;;;;;;;;;19.00;39.67;101797.38;5122641;27;2513;-59
2022/05/01 07:09:50;;;;;;;;;;;;;;;18.99;39.55;101801.59;5126675;27;2701;-60
2022/05/01 07:12:17;;;;;;;;;;;;;;;19.49;39.91;101800.56;5123935;27;2706;-59
2022/05/01 07:14:44;;;;;;;;;;;;;;;19.84;40.97;101788.44;5123577;27;2542;-63
2022/05/01 07:17:10;;;;;;;;;;;;;;;19.93;40.48;101790.47;5116445;27;3010;-60
2022/05/01 07:19:37;;;;;;;;;;;;;;;19.85;40.00;101796.44;5124253;27;2610;-60
2022/05/01 07:22:04;;;;;;;;;;;;;;;19.94;40.52;101791.22;5119756;27;2592;-60
2022/05/01 07:24:30;;;;;;;;;;;;;;;19.97;41.12;101796.44;5107351;27;2614;-60
2022/05/01 07:26:57;;;;;;;;;;;;;;;20.04;41.62;101791.84;5124886;27;2557;-60
2022/05/01 07:29:24;;;;;;;;;;;;;;;20.13;41.60;101795.97;5126907;27;3068;-61
2022/05/01 07:31:50;;;;;;;;;;;;;;;20.17;41.56;101801.97;5126422;27;2709;-61
2022/05/01 07:34:17;;;;;;;;;;;;;;;20.19;41.76;101787.72;5120969;27;2563;-61
2022/05/01 07:36:43;;;;;;;;;;;;;;;20.21;41.85;101790.72;5122477;27;2450;-61
2022/05/01 07:39:09;;;;;;;;;;;;;;;20.26;41.99;101789.59;5126011;27;2667;-60
2022/05/01 07:41:36;;;;;;;;;;;;;;;20.32;42.15;101795.72;5129017;27;2435;-60
2022/05/01 07:44:03;;;;;;;;;;;;;;;20.37;42.08;101785.97;5129622;27;1649;-60
2022/05/01 07:46:29;;;;;;;;;;;;;;;20.39;42.02;101791.84;5122405;27;2634;-60
2022/05/01 07:48:56;;;;;;;;;;;;;;;20.41;42.09;101797.72;5126659;27;2921;-60
2022/05/01 07:51:22;;;;;;;;;;;;;;;20.42;42.34;101796.34;5126236;27;2519;-61
2022/05/01 07:53:48;;;;;;;;;;;;;;;20.44;42.28;101796.47;5127091;27;2720;-61
2022/05/01 07:56:15;;;;;;;;;;;;;;;20.48;42.37;101796.72;5127723;27;2465;-61
2022/05/01 07:58:41;;;;;;;;;;;;;;;20.52;42.38;101793.31;5118456;27;2569;-60
2022/05/01 08:01:07;;;;;;;;;;;;;;;20.52;42.54;101796.19;5123867;27;2644;-61
2022/05/01 08:06:21;;;;;;;;;;;;;;;20.57;42.62;101791.47;5129823;27;2677;-61
2022/05/01 08:08:49;;;;;;;;;;;;;;;20.56;42.79;101790.72;5124111;27;2623;-61
2022/05/01 08:11:15;;;;;;;;;;;;;;;20.60;42.85;101790.22;5128095;27;2320;-61
2022/05/01 08:13:41;;;;;;;;;;;;;;;20.62;42.83;101796.13;5119829;27;3509;-61
2022/05/01 08:16:08;;;;;;;;;;;;;;;20.62;42.92;101793.97;5120769;27;2697;-61
2022/05/01 08:21:21;;;;;;;;;;;;;;;20.63;43.00;101801.22;5118373;27;2793;-71
2022/05/01 08:23:47;;;;;;;;;;;;;;;20.44;39.89;101798.59;5122420;27;2433;-72
2022/05/01 08:26:17;;;;;;;;;;;;;;;20.28;38.54;101795.47;5123577;27;2697;-74
2022/05/01 08:28:44;;;;;;;;;;;;;;;20.16;36.97;101800.47;5124306;27;2687;-71
2022/05/01 08:31:10;;;;;;;;;;;;;;;20.04;36.41;101801.22;5123400;27;2572;-79
2022/05/01 08:33:38;;;;;;;;;;;;;;;19.94;35.46;101803.44;5110342;27;3243;-62
2022/05/01 08:36:05;;;;;;;;;;;;;;;19.93;36.27;101796.22;5119433;27;3374;-63
2022/05/01 08:38:31;;;;;;;;;;;;;;;20.02;35.60;101798.22;5120321;27;3203;-62
2022/05/01 08:40:57;;;;;;;;;;;;;;;20.06;36.08;101803.47;5122752;27;2516;-63
2022/05/01 08:43:24;;;;;;;;;;;;;;;20.06;36.42;101807.09;5115510;27;2529;-63
2022/05/01 08:45:59;;;;;;;;;;;;;;;20.17;37.21;101802.72;5121009;27;2953;-62
2022/05/01 08:48:30;;;;;;;;;;;;;;;20.23;38.25;101800.22;5107145;27;3037;-62
2022/05/01 08:50:56;;;;;;;;;;;;;;;20.25;39.03;101802.50;5128620;27;1615;-62
2022/05/01 08:53:22;;;;;;;;;;;;;;;20.29;39.67;101794.88;5124682;27;2605;-62
2022/05/01 08:55:50;;;;;;;;;;;;;;;20.33;39.87;101802.97;5123172;27;2684;-62
2022/05/01 08:58:16;;;;;;;;;;;;;;;20.30;40.11;101804.97;5120917;27;2679;-62
2022/05/01 09:00:43;;;;;;;;;;;;;;;20.33;40.18;101808.72;5110333;27;3281;-62
2022/05/01 09:03:10;;;;;;;;;;;;;;;20.35;40.41;101805.97;5117424;27;2732;-62
2022/05/01 09:05:36;;;;;;;;;;;;;;;20.41;40.51;101812.13;5123385;27;1540;-62
2022/05/01 09:08:03;;;;;;;;;;;;;;;20.38;40.85;101807.59;5121164;27;2630;-62
2022/05/01 09:10:30;;;;;;;;;;;;;;;20.45;40.89;101803.72;5125286;27;2639;-62
2022/05/01 09:12:57;;;;;;;;;;;;;;;20.48;41.00;101805.34;5101169;27;2595;-63
2022/05/01 09:15:33;;;;;;;;;;;;;;;20.50;41.10;101814.13;5122525;27;2686;-62
2022/05/01 09:18:01;;;;;;;;;;;;;;;20.51;41.38;101801.22;5120951;27;2945;-62
2022/05/01 09:20:27;;;;;;;;;;;;;;;20.51;41.56;101801.22;5121472;27;2824;-62
2022/05/01 09:22:54;;;;;;;;;;;;;;;20.53;41.74;101800.59;5122658;27;2686;-62
2022/05/01 09:25:22;;;;;;;;;;;;;;;20.43;42.08;101806.50;5118694;27;2639;-62
2022/05/01 09:27:52;;;;;;;;;;;;;;;20.47;42.15;101812.47;5123437;27;2225;-62
2022/05/01 09:30:22;;;;;;;;;;;;;;;20.48;42.14;101805.34;5125581;27;2501;-62
2022/05/01 09:32:48;;;;;;;;;;;;;;;20.45;42.44;101803.72;5117635;27;2587;-62
2022/05/01 09:35:35;;;;;;;;;;;;;;;20.45;42.58;101808.72;5123909;27;3233;-62
2022/05/01 09:38:17;;;;;;;;;;;;;;;20.47;42.61;101805.97;5127248;27;1983;-62
2022/05/01 09:40:50;;;;;;;;;;;;;;;20.56;42.76;101801.47;5120713;27;2618;-62
2022/05/01 09:43:35;;;;;;;;;;;;;;;20.55;42.91;101806.47;5123871;27;2984;-62
2022/05/01 09:46:20;;;;;;;;;;;;;;;20.66;42.84;101807.84;5124437;27;2597;-62
2022/05/01 09:48:59;;;;;;;;;;;;;;;20.71;42.81;101803.84;5115128;27;2608;-61
2022/05/01 09:51:25;;;;;;;;;;;;;;;20.65;42.89;101795.59;5125565;27;2603;-62
2022/05/01 09:53:52;;;;;;;;;;;;;;;20.59;43.17;101800.22;5121809;28;2604;-62
2022/05/01 09:56:18;;;;;;;;;;;;;;;20.59;43.27;101794.47;5119134;28;2532;-62
2022/05/01 09:58:45;;;;;;;;;;;;;;;20.59;43.44;101794.47;5121703;28;2596;-62
2022/05/01 10:01:11;;;;;;;;;;;;;;;20.57;43.43;101794.34;5118689;28;2689;-61
2022/05/01 10:03:42;;;;;;;;;;;;;;;20.40;40.60;101795.47;5116556;28;2664;-64
2022/05/01 10:06:10;;;;;;;;;;;;;;;20.38;40.43;101792.47;5123973;28;2086;-65
2022/05/01 10:08:37;;;;;;;;;;;;;;;20.44;41.52;101787.09;5124323;28;2466;-63
2022/05/01 10:11:05;;;;;;;;;;;;;;;20.48;42.71;101787.34;5116989;28;2708;-61
2022/05/01 10:13:31;;;;;;;;;;;;;;;20.53;42.95;101786.22;5122084;28;2303;-61
2022/05/01 10:16:06;;;;;;;;;;;;;;;20.53;42.93;101794.09;5123789;28;2723;-63
2022/05/01 10:18:32;;;;;;;;;;;;;;;20.60;43.02;101785.22;5122682;28;2878;-63
2022/05/01 10:20:59;;;;;;;;;;;;;;;20.57;43.38;101785.72;5120632;28;2953;-62
2022/05/01 10:23:25;;;;;;;;;;;;;;;20.54;43.84;101795.59;5114971;27;2548;-62
2022/05/01 10:26:10;;;;;;;;;;;;;;;20.62;43.87;101784.59;5093010;27;3379;-62
2022/05/01 10:29:02;;;;;;;;;;;;;;;20.76;45.29;101791.19;5123626;27;3576;-62
2022/05/01 10:34:40;;;;;;;;;;;;;;;20.79;45.19;101777.69;5103190;27;3468;-62
2022/05/01 10:37:25;;;;;;;;;;;;;;;20.79;45.24;101781.28;5108479;27;2866;-62
2022/05/01 10:39:51;;;;;;;;;;;;;;;20.77;46.31;101780.44;5128094;27;2049;-63
2022/05/01 10:42:33;;;;;;;;;;;;;;;20.79;46.65;101778.41;5105847;27;2741;-62
2022/05/01 10:45:00;;;;;;;;;;;;;;;20.78;46.77;101776.19;5127532;27;2620;-62
2022/05/01 10:47:36;;;;;;;;;;;;;;;20.77;47.03;101775.41;5125609;27;2630;-62
2022/05/01 10:50:07;;;;;;;;;;;;;;;20.80;47.28;101779.94;5125606;27;2488;-62
2022/05/01 10:52:33;;;;;;;;;;;;;;;20.80;47.77;101779.94;5104226;27;2908;-61
2022/05/01 10:55:01;;;;;;;;;;;;;;;20.79;47.28;101772.66;5124415;27;2698;-61
2022/05/01 10:57:27;;;;;;;;;;;;;;;20.82;47.55;101780.06;5121261;27;2729;-61
2022/05/01 11:00:09;;;;;;;;;;;;;;;20.82;47.68;101777.19;5115588;27;2624;-64
2022/05/01 11:02:36;;;;;;;;;;;;;;;20.82;48.23;101777.19;5117910;27;2698;-62
2022/05/01 11:05:03;;;;;;;;;;;;;;;20.87;47.46;101778.91;5114060;27;2820;-63
2022/05/01 11:07:29;;;;;;;;;;;;;;;20.92;47.23;101780.63;5119924;27;2694;-63
2022/05/01 11:09:59;;;;;;;;;;;;;;;20.89;47.37;101773.28;5120668;27;3349;-64
2022/05/01 11:12:26;;;;;;;;;;;;;;;20.93;47.33;101770.59;5103596;27;2759;-57
2022/05/01 11:14:52;;;;;;;;;;;;;;;20.98;47.60;101770.84;5112265;27;2602;-55
2022/05/01 11:17:28;;;;;;;;;;;;;;;21.00;47.10;101768.09;5125387;27;2544;-56
2022/05/01 11:20:02;;;;;;;;;;;;;;;20.96;47.31;101762.88;5113670;27;3315;-53
2022/05/01 11:22:29;;;;;;;;;;;;;;;20.87;43.67;101761.63;5115180;27;3082;-61
2022/05/01 11:24:55;;;;;;;;;;;;;;;20.87;43.57;101755.13;5097323;27;3141;-61
2022/05/01 11:27:22;;;;;;;;;;;;;;;20.88;42.99;101757.38;5122362;27;2977;-62
2022/05/01 11:30:07;;;;;;;;;;;;;;;20.90;43.86;101754.59;5124754;27;2538;-63
2022/05/01 11:32:42;;;;;;;;;;;;;;;20.94;44.49;101759.88;5124386;27;2714;-63
2022/05/01 11:35:11;;;;;;;;;;;;;;;20.95;44.66;101761.34;5124049;27;2662;-63
2022/05/01 11:38:05;;;;;;;;;;;;;;;21.00;44.57;101756.56;5126893;27;2538;-62
2022/05/01 11:40:32;;;;;;;;;;;;;;;21.06;44.81;101762.69;5107575;27;2825;-65
2022/05/01 11:43:13;;;;;;;;;;;;;;;21.00;45.15;101763.06;5097092;27;2457;-63
2022/05/01 11:45:39;;;;;;;;;;;;;;;21.00;45.27;101745.06;5122331;27;2442;-66
2022/05/01 11:48:12;;;;;;;;;;;;;;;21.05;45.37;101749.66;5112662;27;3323;-64
2022/05/01 11:50:39;;;;;;;;;;;;;;;21.05;45.30;101749.66;5116067;27;2674;-64
2022/05/01 11:53:14;;;;;;;;;;;;;;;21.08;45.41;101751.31;5106458;27;2665;-63
2022/05/01 12:04:01;;;;;;;;;;;;;;;21.12;45.29;101758.03;5122581;27;2758;-62
2022/05/01 12:06:29;;;;;;;;;;;;;;;21.15;45.37;101744.50;5121904;27;2589;-63
2022/05/01 12:08:55;;;;;;;;;;;;;;;21.18;45.30;101743.22;5124729;27;2410;-64
2022/05/01 12:11:28;;;;;;;;;;;;;;;21.17;45.36;101747.50;5116385;27;2589;-64
2022/05/01 12:14:04;;;;;;;;;;;;;;;21.19;45.37;101749.72;5124614;27;2426;-63
2022/05/01 12:16:30;;;;;;;;;;;;;;;21.20;45.37;101754.88;5123025;27;2469;-64
2022/05/01 12:18:57;;;;;;;;;;;;;;;21.19;45.47;101747.63;5102818;27;2562;-63
2022/05/01 12:21:30;;;;;;;;;;;;;;;21.25;45.13;101750.09;5118780;27;2627;-62
2022/05/01 12:24:07;;;;;;;;;;;;;;;21.27;44.90;101750.94;5123448;27;2382;-62
2022/05/01 12:26:35;;;;;;;;;;;;;;;21.27;44.87;101750.94;5120185;27;2960;-64
2022/05/01 12:29:01;;;;;;;;;;;;;;;21.30;44.79;101743.94;5122025;27;2599;-67
2022/05/01 12:31:27;;;;;;;;;;;;;;;21.29;43.24;101747.44;5097024;27;2596;-62
2022/05/01 12:33:54;;;;;;;;;;;;;;;21.25;42.31;101747.94;5107945;27;3275;-64
2022/05/01 12:36:25;;;;;;;;;;;;;;;21.22;41.04;101749.22;5116138;27;2624;-64
2022/05/01 12:39:01;;;;;;;;;;;;;;;21.22;39.57;101749.22;5115744;27;2869;-64
2022/05/01 12:44:32;;;;;;;;;;;;;;;21.25;39.43;101742.19;5118608;27;2775;-67
2022/05/01 12:46:59;;;;;;;;;;;;;;;21.28;40.14;101743.03;5114317;27;3540;-65
2022/05/01 12:49:25;;;;;;;;;;;;;;;21.30;40.99;101749.69;5114577;27;2688;-66
2022/05/01 12:51:52;;;;;;;;;;;;;;;21.31;41.09;101748.31;5109917;27;2724;-66
2022/05/01 12:54:18;;;;;;;;;;;;;;;21.32;41.73;101746.91;5117969;27;2781;-67
2022/05/01 12:56:45;;;;;;;;;;;;;;;21.37;41.86;101741.38;5111429;27;2793;-67
2022/05/01 12:59:30;;;;;;;;;;;;;;;21.37;41.85;101741.38;5115951;27;2856;-67
2022/05/01 13:01:57;;;;;;;;;;;;;;;21.40;42.09;101735.13;5110718;27;3040;-66
2022/05/01 13:04:24;;;;;;;;;;;;;;;21.43;42.34;101738.88;5115050;27;2743;-65
2022/05/01 13:06:51;;;;;;;;;;;;;;;21.45;42.47;101739.00;5116605;27;2473;-66
2022/05/01 13:09:17;;;;;;;;;;;;;;;21.45;42.43;101736.09;5116705;27;2459;-64
2022/05/01 13:11:59;;;;;;;;;;;;;;;21.46;42.83;101728.94;5102165;27;2852;-64
2022/05/01 13:14:30;;;;;;;;;;;;;;;21.47;42.30;101733.34;5115719;27;2849;-68
2022/05/01 13:17:05;;;;;;;;;;;;;;;21.42;42.42;101726.59;5116103;27;2744;-65
2022/05/01 13:19:32;;;;;;;;;;;;;;;21.38;42.95;101719.84;5108383;27;2617;-64
2022/05/01 13:21:59;;;;;;;;;;;;;;;21.37;42.82;101715.44;5112577;27;2542;-65
2022/05/01 13:24:29;;;;;;;;;;;;;;;21.39;42.86;101709.81;5117067;27;2487;-64
2022/05/01 13:26:59;;;;;;;;;;;;;;;21.41;42.31;101712.81;5117461;27;2682;-67